sensor_id;sensor_type;location;lat;lon;timestamp;pressure;altitude;pressure_sealevel;temperature;humidity
49943;BME280;36011;53.362;58.948;2023-03-14T00:00:29;96636.66;;;0.49;86.61
49943;BME280;36011;53.362;58.948;2023-03-14T00:03:34;96628.06;;;0.47;86.36
49943;BME280;36011;53.362;58.948;2023-03-14T00:06:39;96622.44;;;0.32;86.73
49943;BME280;36011;53.362;58.948;2023-03-14T00:10:04;96611.09;;;0.36;86.49
49943;BME280;36011;53.362;58.948;2023-03-14T00:13:28;96598.50;;;0.54;86.64
49943;BME280;36011;53.362;58.948;2023-03-14T00:16:52;96592.78;;;0.44;86.20
49943;BME280;36011;53.362;58.948;2023-03-14T00:20:15;96599.78;;;0.40;86.95
49943;BME280;36011;53.362;58.948;2023-03-14T00:23:41;96601.91;;;0.56;87.06
49943;BME280;36011;53.362;58.948;2023-03-14T00:27:04;96599.84;;;0.67;86.77
49943;BME280;36011;53.362;58.948;2023-03-14T00:30:27;96599.94;;;0.64;86.03
49943;BME280;36011;53.362;58.948;2023-03-14T00:33:52;96593.09;;;0.63;86.59
49943;BME280;36011;53.362;58.948;2023-03-14T00:37:15;96595.81;;;0.58;85.97
49943;BME280;36011;53.362;58.948;2023-03-14T00:40:40;96590.13;;;0.75;85.97
49943;BME280;36011;53.362;58.948;2023-03-14T00:44:02;96601.38;;;0.74;85.89
49943;BME280;36011;53.362;58.948;2023-03-14T00:47:25;96581.38;;;0.50;85.74
49943;BME280;36011;53.362;58.948;2023-03-14T00:50:49;96599.22;;;0.59;86.34
49943;BME280;36011;53.362;58.948;2023-03-14T00:54:12;96599.72;;;0.72;86.22
49943;BME280;36011;53.362;58.948;2023-03-14T00:57:16;96596.53;;;0.62;85.79
49943;BME280;36011;53.362;58.948;2023-03-14T01:00:19;96600.22;;;0.55;85.97
49943;BME280;36011;53.362;58.948;2023-03-14T01:03:25;96616.19;;;0.69;85.56
49943;BME280;36011;53.362;58.948;2023-03-14T01:06:30;96608.81;;;0.57;85.60
49943;BME280;36011;53.362;58.948;2023-03-14T01:09:35;96618.38;;;0.53;86.84
49943;BME280;36011;53.362;58.948;2023-03-14T01:12:40;96632.13;;;0.55;86.61
49943;BME280;36011;53.362;58.948;2023-03-14T01:15:46;96617.94;;;0.69;86.05
49943;BME280;36011;53.362;58.948;2023-03-14T01:18:51;96624.06;;;0.66;85.62
49943;BME280;36011;53.362;58.948;2023-03-14T01:22:13;96623.22;;;0.65;85.82
49943;BME280;36011;53.362;58.948;2023-03-14T01:25:41;96626.03;;;0.58;85.69
49943;BME280;36011;53.362;58.948;2023-03-14T01:29:04;96624.59;;;0.48;86.08
49943;BME280;36011;53.362;58.948;2023-03-14T01:32:27;96602.94;;;0.50;86.79
49943;BME280;36011;53.362;58.948;2023-03-14T01:35:32;96627.63;;;0.62;86.43
49943;BME280;36011;53.362;58.948;2023-03-14T01:38:38;96601.63;;;0.65;85.98
49943;BME280;36011;53.362;58.948;2023-03-14T01:41:42;96627.53;;;0.65;86.16
49943;BME280;36011;53.362;58.948;2023-03-14T01:47:58;96632.47;;;0.73;85.48
49943;BME280;36011;53.362;58.948;2023-03-14T01:51:00;96628.97;;;0.75;85.97
49943;BME280;36011;53.362;58.948;2023-03-14T01:57:34;96634.22;;;0.72;85.87
49943;BME280;36011;53.362;58.948;2023-03-14T02:00:40;96635.47;;;0.59;85.74
49943;BME280;36011;53.362;58.948;2023-03-14T02:03:56;96618.78;;;0.69;86.05
49943;BME280;36011;53.362;58.948;2023-03-14T02:07:22;96623.06;;;0.70;85.32
49943;BME280;36011;53.362;58.948;2023-03-14T02:10:31;96625.75;;;0.67;85.77
49943;BME280;36011;53.362;58.948;2023-03-14T02:13:38;96617.16;;;0.65;85.62
49943;BME280;36011;53.362;58.948;2023-03-14T02:16:41;96626.88;;;0.58;85.90
49943;BME280;36011;53.362;58.948;2023-03-14T02:20:10;96618.41;;;0.81;85.81
49943;BME280;36011;53.362;58.948;2023-03-14T02:23:23;96622.28;;;0.68;85.58
49943;BME280;36011;53.362;58.948;2023-03-14T02:26:40;96619.13;;;0.86;86.01
49943;BME280;36011;53.362;58.948;2023-03-14T02:29:59;96616.00;;;0.75;85.90
49943;BME280;36011;53.362;58.948;2023-03-14T02:33:13;96615.78;;;0.83;85.73
49943;BME280;36011;53.362;58.948;2023-03-14T02:36:22;96615.91;;;0.78;86.04
49943;BME280;36011;53.362;58.948;2023-03-14T02:39:45;96612.09;;;0.90;86.04
49943;BME280;36011;53.362;58.948;2023-03-14T02:42:49;96609.75;;;0.82;85.90
49943;BME280;36011;53.362;58.948;2023-03-14T02:45:51;96600.38;;;0.78;85.36
49943;BME280;36011;53.362;58.948;2023-03-14T02:49:00;96617.53;;;0.82;85.55
49943;BME280;36011;53.362;58.948;2023-03-14T02:52:02;96610.53;;;0.84;85.87
49943;BME280;36011;53.362;58.948;2023-03-14T02:55:04;96619.69;;;0.96;85.78
49943;BME280;36011;53.362;58.948;2023-03-14T02:58:06;96620.81;;;0.87;85.41
49943;BME280;36011;53.362;58.948;2023-03-14T03:01:08;96615.31;;;0.98;85.41
49943;BME280;36011;53.362;58.948;2023-03-14T03:04:12;96628.03;;;1.06;85.14
49943;BME280;36011;53.362;58.948;2023-03-14T03:07:16;96631.53;;;1.05;85.52
49943;BME280;36011;53.362;58.948;2023-03-14T03:10:22;96647.22;;;0.99;84.94
49943;BME280;36011;53.362;58.948;2023-03-14T03:13:26;96645.34;;;1.04;85.11
49943;BME280;36011;53.362;58.948;2023-03-14T03:16:30;96636.63;;;1.08;85.72
49943;BME280;36011;53.362;58.948;2023-03-14T03:19:35;96649.69;;;1.03;85.56
49943;BME280;36011;53.362;58.948;2023-03-14T03:22:42;96653.09;;;1.05;85.84
49943;BME280;36011;53.362;58.948;2023-03-14T03:25:51;96645.56;;;0.98;85.65
49943;BME280;36011;53.362;58.948;2023-03-14T03:28:55;96644.28;;;1.11;86.14
49943;BME280;36011;53.362;58.948;2023-03-14T03:32:01;96645.16;;;1.10;85.98
49943;BME280;36011;53.362;58.948;2023-03-14T03:35:05;96632.81;;;1.18;86.22
49943;BME280;36011;53.362;58.948;2023-03-14T03:38:08;96634.53;;;1.19;85.47
49943;BME280;36011;53.362;58.948;2023-03-14T03:41:14;96634.44;;;1.22;85.94
49943;BME280;36011;53.362;58.948;2023-03-14T03:44:19;96645.53;;;1.26;85.80
49943;BME280;36011;53.362;58.948;2023-03-14T03:47:24;96646.47;;;1.23;86.23
49943;BME280;36011;53.362;58.948;2023-03-14T03:50:27;96654.25;;;1.23;86.44
49943;BME280;36011;53.362;58.948;2023-03-14T03:53:31;96649.81;;;1.27;86.42
49943;BME280;36011;53.362;58.948;2023-03-14T03:56:35;96667.03;;;1.29;86.76
49943;BME280;36011;53.362;58.948;2023-03-14T03:59:40;96658.28;;;1.33;86.59
49943;BME280;36011;53.362;58.948;2023-03-14T04:02:43;96664.28;;;1.61;86.91
49943;BME280;36011;53.362;58.948;2023-03-14T04:05:57;96662.94;;;1.49;86.60
49943;BME280;36011;53.362;58.948;2023-03-14T04:09:02;96650.28;;;1.40;87.45
49943;BME280;36011;53.362;58.948;2023-03-14T04:12:06;96667.09;;;1.54;87.50
49943;BME280;36011;53.362;58.948;2023-03-14T04:15:11;96699.81;;;1.59;87.71
49943;BME280;36011;53.362;58.948;2023-03-14T04:18:14;96697.47;;;1.51;84.88
49943;BME280;36011;53.362;58.948;2023-03-14T04:21:19;96695.09;;;1.15;84.05
49943;BME280;36011;53.362;58.948;2023-03-14T04:24:24;96697.66;;;0.88;83.41
49943;BME280;36011;53.362;58.948;2023-03-14T04:27:29;96706.38;;;0.84;84.32
49943;BME280;36011;53.362;58.948;2023-03-14T04:30:34;96708.53;;;0.70;83.85
49943;BME280;36011;53.362;58.948;2023-03-14T04:33:39;96722.66;;;0.58;84.25
49943;BME280;36011;53.362;58.948;2023-03-14T04:36:43;96728.47;;;0.66;83.84
49943;BME280;36011;53.362;58.948;2023-03-14T04:39:48;96721.72;;;0.62;84.33
49943;BME280;36011;53.362;58.948;2023-03-14T04:42:53;96723.59;;;0.56;84.04
49943;BME280;36011;53.362;58.948;2023-03-14T04:45:59;96732.28;;;0.53;83.82
49943;BME280;36011;53.362;58.948;2023-03-14T04:49:04;96739.19;;;0.54;83.85
49943;BME280;36011;53.362;58.948;2023-03-14T04:52:09;96727.81;;;0.60;84.06
49943;BME280;36011;53.362;58.948;2023-03-14T04:55:14;96748.53;;;0.60;83.38
49943;BME280;36011;53.362;58.948;2023-03-14T04:58:19;96765.56;;;0.69;83.62
49943;BME280;36011;53.362;58.948;2023-03-14T05:01:25;96768.22;;;0.65;82.97
49943;BME280;36011;53.362;58.948;2023-03-14T05:04:30;96772.31;;;0.73;82.56
49943;BME280;36011;53.362;58.948;2023-03-14T05:07:36;96789.97;;;0.58;81.59
49943;BME280;36011;53.362;58.948;2023-03-14T05:10:41;96802.16;;;0.55;80.81
49943;BME280;36011;53.362;58.948;2023-03-14T05:13:45;96788.22;;;0.60;79.15
49943;BME280;36011;53.362;58.948;2023-03-14T05:16:50;96792.91;;;0.46;78.17
49943;BME280;36011;53.362;58.948;2023-03-14T05:19:54;96803.38;;;0.41;77.16
49943;BME280;36011;53.362;58.948;2023-03-14T05:22:57;96810.75;;;0.57;75.53
49943;BME280;36011;53.362;58.948;2023-03-14T05:26:02;96794.41;;;0.55;74.65
49943;BME280;36011;53.362;58.948;2023-03-14T05:29:05;96792.13;;;0.75;74.11
49943;BME280;36011;53.362;58.948;2023-03-14T05:32:10;96798.84;;;0.82;72.11
49943;BME280;36011;53.362;58.948;2023-03-14T05:35:15;96803.88;;;0.87;70.82
49943;BME280;36011;53.362;58.948;2023-03-14T05:38:19;96806.22;;;0.96;68.05
49943;BME280;36011;53.362;58.948;2023-03-14T05:41:25;96821.47;;;1.07;67.21
49943;BME280;36011;53.362;58.948;2023-03-14T05:44:30;96830.63;;;1.19;66.85
49943;BME280;36011;53.362;58.948;2023-03-14T05:47:34;96833.63;;;1.34;65.62
49943;BME280;36011;53.362;58.948;2023-03-14T05:50:39;96848.59;;;1.56;63.05
49943;BME280;36011;53.362;58.948;2023-03-14T05:53:44;96854.72;;;1.52;63.53
49943;BME280;36011;53.362;58.948;2023-03-14T05:56:49;96859.81;;;1.55;62.12
49943;BME280;36011;53.362;58.948;2023-03-14T05:59:52;96855.81;;;1.74;61.51
49943;BME280;36011;53.362;58.948;2023-03-14T06:02:57;96852.56;;;1.68;60.07
49943;BME280;36011;53.362;58.948;2023-03-14T06:06:01;96859.50;;;1.67;58.32
49943;BME280;36011;53.362;58.948;2023-03-14T06:09:05;96867.00;;;1.76;58.09
49943;BME280;36011;53.362;58.948;2023-03-14T06:12:09;96873.97;;;1.74;57.83
49943;BME280;36011;53.362;58.948;2023-03-14T06:15:12;96875.06;;;1.95;58.32
49943;BME280;36011;53.362;58.948;2023-03-14T06:18:17;96893.13;;;1.98;56.97
49943;BME280;36011;53.362;58.948;2023-03-14T06:21:21;96897.31;;;2.02;57.50
49943;BME280;36011;53.362;58.948;2023-03-14T06:24:25;96901.78;;;1.99;58.03
49943;BME280;36011;53.362;58.948;2023-03-14T06:27:30;96908.47;;;2.06;58.30
49943;BME280;36011;53.362;58.948;2023-03-14T06:30:34;96911.88;;;2.08;58.30
49943;BME280;36011;53.362;58.948;2023-03-14T06:33:37;96919.03;;;2.28;58.38
49943;BME280;36011;53.362;58.948;2023-03-14T06:36:42;96915.50;;;2.57;57.75
49943;BME280;36011;53.362;58.948;2023-03-14T06:39:47;96922.22;;;2.64;55.85
49943;BME280;36011;53.362;58.948;2023-03-14T06:42:51;96923.28;;;2.57;52.89
49943;BME280;36011;53.362;58.948;2023-03-14T06:45:56;96928.66;;;2.53;53.55
49943;BME280;36011;53.362;58.948;2023-03-14T06:49:01;96937.19;;;2.56;53.46
49943;BME280;36011;53.362;58.948;2023-03-14T06:52:06;96921.25;;;2.67;53.65
49943;BME280;36011;53.362;58.948;2023-03-14T06:55:11;96939.59;;;2.89;53.28
49943;BME280;36011;53.362;58.948;2023-03-14T06:58:16;96931.88;;;2.86;52.49
49943;BME280;36011;53.362;58.948;2023-03-14T07:01:24;96920.72;;;2.84;51.47
49943;BME280;36011;53.362;58.948;2023-03-14T07:04:30;96933.34;;;2.68;51.11
49943;BME280;36011;53.362;58.948;2023-03-14T07:07:34;96932.28;;;2.74;51.71
49943;BME280;36011;53.362;58.948;2023-03-14T07:10:39;96942.38;;;2.83;50.53
49943;BME280;36011;53.362;58.948;2023-03-14T07:13:44;96939.00;;;2.81;50.89
49943;BME280;36011;53.362;58.948;2023-03-14T07:16:48;96960.69;;;3.06;50.92
49943;BME280;36011;53.362;58.948;2023-03-14T07:19:53;96963.00;;;3.39;50.74
49943;BME280;36011;53.362;58.948;2023-03-14T07:22:57;96963.19;;;3.83;49.50
49943;BME280;36011;53.362;58.948;2023-03-14T07:26:03;96966.06;;;3.99;49.39
49943;BME280;36011;53.362;58.948;2023-03-14T07:29:07;96969.59;;;4.43;47.38
49943;BME280;36011;53.362;58.948;2023-03-14T07:32:09;96984.81;;;4.76;46.85
49943;BME280;36011;53.362;58.948;2023-03-14T07:35:18;96977.34;;;4.45;46.77
49943;BME280;36011;53.362;58.948;2023-03-14T07:38:22;96984.84;;;4.53;46.96
49943;BME280;36011;53.362;58.948;2023-03-14T07:41:27;96986.06;;;4.66;46.26
49943;BME280;36011;53.362;58.948;2023-03-14T07:44:33;96987.66;;;4.70;45.75
49943;BME280;36011;53.362;58.948;2023-03-14T07:47:38;97001.22;;;4.78;47.06
49943;BME280;36011;53.362;58.948;2023-03-14T07:50:40;97009.69;;;5.27;45.97
49943;BME280;36011;53.362;58.948;2023-03-14T07:53:46;97009.16;;;4.75;44.87
49943;BME280;36011;53.362;58.948;2023-03-14T07:56:51;97012.38;;;4.60;46.32
49943;BME280;36011;53.362;58.948;2023-03-14T07:59:56;97006.94;;;4.66;45.75
49943;BME280;36011;53.362;58.948;2023-03-14T08:03:00;97014.94;;;4.83;46.20
49943;BME280;36011;53.362;58.948;2023-03-14T08:06:02;97026.88;;;5.31;44.90
49943;BME280;36011;53.362;58.948;2023-03-14T08:09:08;97024.09;;;4.93;44.12
49943;BME280;36011;53.362;58.948;2023-03-14T08:12:13;97028.25;;;4.54;44.10
49943;BME280;36011;53.362;58.948;2023-03-14T08:15:17;97030.78;;;4.55;45.07
49943;BME280;36011;53.362;58.948;2023-03-14T08:18:22;97039.78;;;5.14;44.57
49943;BME280;36011;53.362;58.948;2023-03-14T08:21:27;97038.28;;;5.92;41.70
49943;BME280;36011;53.362;58.948;2023-03-14T08:24:32;97057.28;;;6.53;40.84
49943;BME280;36011;53.362;58.948;2023-03-14T08:27:36;97064.25;;;7.46;39.04
49943;BME280;36011;53.362;58.948;2023-03-14T08:30:44;97058.41;;;7.93;35.74
49943;BME280;36011;53.362;58.948;2023-03-14T08:33:49;97059.75;;;8.00;36.53
49943;BME280;36011;53.362;58.948;2023-03-14T08:36:56;97055.03;;;7.56;35.87
49943;BME280;36011;53.362;58.948;2023-03-14T08:40:01;97060.25;;;6.84;37.29
49943;BME280;36011;53.362;58.948;2023-03-14T08:43:10;97052.56;;;6.43;37.61
49943;BME280;36011;53.362;58.948;2023-03-14T08:46:15;97068.97;;;6.07;38.54
49943;BME280;36011;53.362;58.948;2023-03-14T08:49:20;97066.59;;;5.60;39.25
49943;BME280;36011;53.362;58.948;2023-03-14T08:52:24;97074.81;;;5.51;39.77
49943;BME280;36011;53.362;58.948;2023-03-14T08:55:28;97080.44;;;5.62;40.48
49943;BME280;36011;53.362;58.948;2023-03-14T08:58:32;97075.59;;;5.53;39.71
49943;BME280;36011;53.362;58.948;2023-03-14T09:01:38;97090.56;;;5.27;40.03
49943;BME280;36011;53.362;58.948;2023-03-14T09:04:43;97096.44;;;5.10;39.94
49943;BME280;36011;53.362;58.948;2023-03-14T09:07:48;97091.47;;;4.82;40.46
49943;BME280;36011;53.362;58.948;2023-03-14T09:10:52;97091.47;;;4.82;40.74
49943;BME280;36011;53.362;58.948;2023-03-14T09:13:57;97105.41;;;5.03;40.49
49943;BME280;36011;53.362;58.948;2023-03-14T09:17:02;97106.75;;;5.35;38.57
49943;BME280;36011;53.362;58.948;2023-03-14T09:20:07;97102.66;;;8.66;34.88
49943;BME280;36011;53.362;58.948;2023-03-14T09:23:13;97098.84;;;12.45;28.75
49943;BME280;36011;53.362;58.948;2023-03-14T09:26:18;97104.69;;;14.33;25.64
49943;BME280;36011;53.362;58.948;2023-03-14T09:29:23;97114.38;;;15.90;24.67
49943;BME280;36011;53.362;58.948;2023-03-14T09:32:29;97109.03;;;17.25;23.34
49943;BME280;36011;53.362;58.948;2023-03-14T09:35:34;97111.38;;;17.49;22.02
49943;BME280;36011;53.362;58.948;2023-03-14T09:38:38;97124.03;;;18.25;21.92
49943;BME280;36011;53.362;58.948;2023-03-14T09:41:47;97130.63;;;18.40;20.86
49943;BME280;36011;53.362;58.948;2023-03-14T09:45:05;97132.41;;;16.91;20.83
49943;BME280;36011;53.362;58.948;2023-03-14T09:48:24;97122.19;;;16.24;21.36
49943;BME280;36011;53.362;58.948;2023-03-14T09:51:32;97120.13;;;15.52;20.65
49943;BME280;36011;53.362;58.948;2023-03-14T09:54:47;97136.56;;;15.23;21.36
49943;BME280;36011;53.362;58.948;2023-03-14T09:58:08;97136.44;;;15.13;20.73
49943;BME280;36011;53.362;58.948;2023-03-14T10:01:17;97143.44;;;14.69;20.91
49943;BME280;36011;53.362;58.948;2023-03-14T10:04:25;97144.28;;;14.46;20.96
49943;BME280;36011;53.362;58.948;2023-03-14T10:07:31;97150.31;;;14.01;21.31
49943;BME280;36011;53.362;58.948;2023-03-14T10:10:37;97159.81;;;14.39;21.64
49943;BME280;36011;53.362;58.948;2023-03-14T10:13:49;97167.50;;;14.77;20.68
49943;BME280;36011;53.362;58.948;2023-03-14T10:16:55;97180.75;;;14.07;21.44
49943;BME280;36011;53.362;58.948;2023-03-14T10:20:14;97170.44;;;13.67;21.82
49943;BME280;36011;53.362;58.948;2023-03-14T10:23:33;97184.16;;;14.20;21.15
49943;BME280;36011;53.362;58.948;2023-03-14T10:26:37;97191.00;;;14.47;21.30
49943;BME280;36011;53.362;58.948;2023-03-14T10:29:51;97191.13;;;15.14;21.19
49943;BME280;36011;53.362;58.948;2023-03-14T10:32:56;97215.72;;;15.61;20.95
49943;BME280;36011;53.362;58.948;2023-03-14T10:36:05;97217.41;;;15.40;21.11
49943;BME280;36011;53.362;58.948;2023-03-14T10:39:25;97230.16;;;15.01;21.64
49943;BME280;36011;53.362;58.948;2023-03-14T10:42:34;97228.03;;;15.17;21.59
49943;BME280;36011;53.362;58.948;2023-03-14T10:45:47;97224.97;;;14.29;21.80
49943;BME280;36011;53.362;58.948;2023-03-14T10:48:55;97237.72;;;14.00;22.33
49943;BME280;36011;53.362;58.948;2023-03-14T10:52:23;97248.59;;;14.56;22.30
49943;BME280;36011;53.362;58.948;2023-03-14T10:55:29;97248.28;;;14.48;22.11
49943;BME280;36011;53.362;58.948;2023-03-14T10:59:06;97258.88;;;14.72;22.09
49943;BME280;36011;53.362;58.948;2023-03-14T11:05:59;97270.03;;;13.42;22.44
49943;BME280;36011;53.362;58.948;2023-03-14T11:12:45;97268.09;;;12.13;24.44
49943;BME280;36011;53.362;58.948;2023-03-14T11:23:55;97296.31;;;11.84;24.20
49943;BME280;36011;53.362;58.948;2023-03-14T11:30:16;97304.03;;;12.56;23.72
49943;BME280;36011;53.362;58.948;2023-03-14T11:36:31;97313.88;;;12.67;23.53
49943;BME280;36011;53.362;58.948;2023-03-14T11:39:49;97321.72;;;12.41;23.94
49943;BME280;36011;53.362;58.948;2023-03-14T11:43:15;97331.25;;;11.88;24.69
49943;BME280;36011;53.362;58.948;2023-03-14T11:46:39;97337.53;;;11.14;25.08
49943;BME280;36011;53.362;58.948;2023-03-14T11:52:58;97345.69;;;9.85;26.43
49943;BME280;36011;53.362;58.948;2023-03-14T11:56:03;97348.78;;;9.60;26.78
49943;BME280;36011;53.362;58.948;2023-03-14T11:59:24;97351.25;;;9.30;27.80
49943;BME280;36011;53.362;58.948;2023-03-14T12:09:23;97368.94;;;8.57;27.83
49943;BME280;36011;53.362;58.948;2023-03-14T12:12:27;97374.56;;;8.12;28.43
49943;BME280;36011;53.362;58.948;2023-03-14T12:15:49;97389.59;;;7.89;28.55
49943;BME280;36011;53.362;58.948;2023-03-14T12:18:56;97393.72;;;7.55;28.66
49943;BME280;36011;53.362;58.948;2023-03-14T12:22:27;97403.13;;;8.56;28.13
49943;BME280;36011;53.362;58.948;2023-03-14T12:25:33;97384.84;;;9.74;26.15
49943;BME280;36011;53.362;58.948;2023-03-14T12:28:36;97397.94;;;10.07;25.99
49943;BME280;36011;53.362;58.948;2023-03-14T12:32:07;97410.13;;;9.77;26.72
49943;BME280;36011;53.362;58.948;2023-03-14T12:35:34;97408.75;;;8.65;27.71
49943;BME280;36011;53.362;58.948;2023-03-14T12:41:53;97413.09;;;6.47;29.46
49943;BME280;36011;53.362;58.948;2023-03-14T12:48:26;97430.47;;;5.56;30.96
49943;BME280;36011;53.362;58.948;2023-03-14T12:51:39;97443.75;;;5.25;31.36
49943;BME280;36011;53.362;58.948;2023-03-14T12:58:44;97448.00;;;4.76;32.53
49943;BME280;36011;53.362;58.948;2023-03-14T13:01:56;97451.28;;;4.54;32.70
49943;BME280;36011;53.362;58.948;2023-03-14T13:08:14;97453.50;;;3.80;33.38
49943;BME280;36011;53.362;58.948;2023-03-14T13:11:35;97448.69;;;3.34;34.02
49943;BME280;36011;53.362;58.948;2023-03-14T13:14:45;97458.03;;;3.08;34.49
49943;BME280;36011;53.362;58.948;2023-03-14T13:17:52;97472.84;;;2.70;35.33
49943;BME280;36011;53.362;58.948;2023-03-14T13:21:05;97465.38;;;2.19;36.13
49943;BME280;36011;53.362;58.948;2023-03-14T13:24:25;97479.47;;;1.66;37.33
49943;BME280;36011;53.362;58.948;2023-03-14T13:27:33;97479.50;;;1.19;37.81
49943;BME280;36011;53.362;58.948;2023-03-14T13:30:43;97485.25;;;0.85;38.72
49943;BME280;36011;53.362;58.948;2023-03-14T13:34:00;97489.22;;;0.51;38.87
49943;BME280;36011;53.362;58.948;2023-03-14T13:37:04;97484.53;;;0.20;39.56
49943;BME280;36011;53.362;58.948;2023-03-14T13:40:19;97498.63;;;-0.03;40.22
49943;BME280;36011;53.362;58.948;2023-03-14T13:43:30;97509.25;;;-0.27;40.90
49943;BME280;36011;53.362;58.948;2023-03-14T13:46:37;97513.00;;;-0.53;41.37
49943;BME280;36011;53.362;58.948;2023-03-14T13:49:42;97526.25;;;-0.88;41.67
49943;BME280;36011;53.362;58.948;2023-03-14T13:52:56;97526.41;;;-1.05;41.95
49943;BME280;36011;53.362;58.948;2023-03-14T13:56:04;97547.97;;;-1.09;42.08
49943;BME280;36011;53.362;58.948;2023-03-14T13:59:33;97551.50;;;-1.22;42.08
49943;BME280;36011;53.362;58.948;2023-03-14T14:02:39;97568.91;;;-1.50;42.74
49943;BME280;36011;53.362;58.948;2023-03-14T14:05:45;97576.66;;;-1.49;42.56
49943;BME280;36011;53.362;58.948;2023-03-14T14:08:50;97581.94;;;-1.76;43.55
49943;BME280;36011;53.362;58.948;2023-03-14T14:12:02;97585.44;;;-1.87;42.76
49943;BME280;36011;53.362;58.948;2023-03-14T14:15:18;97591.50;;;-2.00;43.14
49943;BME280;36011;53.362;58.948;2023-03-14T14:18:27;97587.25;;;-2.09;43.54
49943;BME280;36011;53.362;58.948;2023-03-14T14:21:32;97595.00;;;-2.13;44.10
49943;BME280;36011;53.362;58.948;2023-03-14T14:24:38;97606.25;;;-2.37;44.23
49943;BME280;36011;53.362;58.948;2023-03-14T14:27:48;97612.25;;;-2.43;44.66
49943;BME280;36011;53.362;58.948;2023-03-14T14:34:20;97620.00;;;-2.64;45.43
49943;BME280;36011;53.362;58.948;2023-03-14T14:37:28;97637.19;;;-2.77;46.01
49943;BME280;36011;53.362;58.948;2023-03-14T14:40:33;97627.75;;;-2.83;46.18
49943;BME280;36011;53.362;58.948;2023-03-14T14:43:40;97631.16;;;-3.02;46.47
49943;BME280;36011;53.362;58.948;2023-03-14T14:46:44;97639.72;;;-3.12;46.83
49943;BME280;36011;53.362;58.948;2023-03-14T14:49:48;97651.75;;;-3.16;46.47
49943;BME280;36011;53.362;58.948;2023-03-14T14:52:59;97659.47;;;-3.11;47.05
49943;BME280;36011;53.362;58.948;2023-03-14T14:56:20;97655.16;;;-3.16;47.26
49943;BME280;36011;53.362;58.948;2023-03-14T14:59:29;97658.59;;;-3.23;47.03
49943;BME280;36011;53.362;58.948;2023-03-14T15:02:39;97657.72;;;-3.34;47.59
49943;BME280;36011;53.362;58.948;2023-03-14T15:05:49;97659.41;;;-3.42;47.75
49943;BME280;36011;53.362;58.948;2023-03-14T15:08:54;97653.38;;;-3.44;47.69
49943;BME280;36011;53.362;58.948;2023-03-14T15:11:59;97659.41;;;-3.45;47.87
49943;BME280;36011;53.362;58.948;2023-03-14T15:15:01;97663.69;;;-3.41;47.38
49943;BME280;36011;53.362;58.948;2023-03-14T15:18:18;97667.06;;;-3.51;47.83
49943;BME280;36011;53.362;58.948;2023-03-14T15:21:24;97672.22;;;-3.54;47.90
49943;BME280;36011;53.362;58.948;2023-03-14T15:24:28;97680.81;;;-3.49;47.82
49943;BME280;36011;53.362;58.948;2023-03-14T15:27:32;97677.34;;;-3.57;48.20
49943;BME280;36011;53.362;58.948;2023-03-14T15:30:37;97680.75;;;-3.71;48.71
49943;BME280;36011;53.362;58.948;2023-03-14T15:33:42;97688.44;;;-3.72;48.77
49943;BME280;36011;53.362;58.948;2023-03-14T15:36:48;97688.47;;;-3.65;48.72
49943;BME280;36011;53.362;58.948;2023-03-14T15:39:53;97697.03;;;-3.63;48.40
49943;BME280;36011;53.362;58.948;2023-03-14T15:43:00;97699.59;;;-3.66;48.54
49943;BME280;36011;53.362;58.948;2023-03-14T15:46:05;97697.88;;;-3.76;48.76
49943;BME280;36011;53.362;58.948;2023-03-14T15:49:10;97706.38;;;-3.83;48.61
49943;BME280;36011;53.362;58.948;2023-03-14T15:52:12;97720.13;;;-3.81;48.64
49943;BME280;36011;53.362;58.948;2023-03-14T15:55:17;97718.38;;;-3.85;48.78
49943;BME280;36011;53.362;58.948;2023-03-14T15:58:19;97732.94;;;-3.87;48.63
49943;BME280;36011;53.362;58.948;2023-03-14T16:01:23;97728.59;;;-3.94;48.91
49943;BME280;36011;53.362;58.948;2023-03-14T16:04:27;97722.59;;;-3.98;49.18
49943;BME280;36011;53.362;58.948;2023-03-14T16:07:32;97737.16;;;-4.01;49.38
49943;BME280;36011;53.362;58.948;2023-03-14T16:10:36;97740.50;;;-4.09;49.55
49943;BME280;36011;53.362;58.948;2023-03-14T16:13:42;97746.50;;;-4.11;49.90
49943;BME280;36011;53.362;58.948;2023-03-14T16:16:46;97754.19;;;-4.11;50.16
49943;BME280;36011;53.362;58.948;2023-03-14T16:19:49;97755.88;;;-4.18;49.88
49943;BME280;36011;53.362;58.948;2023-03-14T16:22:55;97748.09;;;-4.25;50.43
49943;BME280;36011;53.362;58.948;2023-03-14T16:26:03;97748.88;;;-4.34;50.61
49943;BME280;36011;53.362;58.948;2023-03-14T16:29:07;97751.53;;;-4.26;50.91
49943;BME280;36011;53.362;58.948;2023-03-14T16:32:09;97754.16;;;-4.19;50.71
49943;BME280;36011;53.362;58.948;2023-03-14T16:35:15;97754.19;;;-4.13;50.58
49943;BME280;36011;53.362;58.948;2023-03-14T16:38:21;97767.09;;;-4.05;50.89
49943;BME280;36011;53.362;58.948;2023-03-14T16:41:24;97762.88;;;-3.98;50.86
49943;BME280;36011;53.362;58.948;2023-03-14T16:44:33;97766.22;;;-4.06;51.00
49943;BME280;36011;53.362;58.948;2023-03-14T16:47:39;97762.84;;;-4.04;51.22
49943;BME280;36011;53.362;58.948;2023-03-14T16:50:41;97766.28;;;-3.99;51.06
49943;BME280;36011;53.362;58.948;2023-03-14T16:53:47;97761.00;;;-4.18;51.47
49943;BME280;36011;53.362;58.948;2023-03-14T16:56:52;97771.25;;;-4.24;51.75
49943;BME280;36011;53.362;58.948;2023-03-14T16:59:56;97773.84;;;-4.19;51.72
49943;BME280;36011;53.362;58.948;2023-03-14T17:03:01;97775.56;;;-4.17;51.62
49943;BME280;36011;53.362;58.948;2023-03-14T17:06:06;97774.78;;;-4.10;51.35
49943;BME280;36011;53.362;58.948;2023-03-14T17:09:09;97785.13;;;-4.00;51.07
49943;BME280;36011;53.362;58.948;2023-03-14T17:12:14;97781.50;;;-4.27;51.93
49943;BME280;36011;53.362;58.948;2023-03-14T17:15:19;97778.91;;;-4.30;52.27
49943;BME280;36011;53.362;58.948;2023-03-14T17:18:25;97773.69;;;-4.38;52.38
49943;BME280;36011;53.362;58.948;2023-03-14T17:21:30;97771.97;;;-4.39;52.70
49943;BME280;36011;53.362;58.948;2023-03-14T17:24:35;97791.53;;;-4.53;52.60
49943;BME280;36011;53.362;58.948;2023-03-14T17:27:40;97795.84;;;-4.52;52.88